sensor_id;sensor_type;location;lat;lon;timestamp;pressure;altitude;pressure_sealevel;temperature;humidity
42647;BME280;31319;53.678;-6.254;2022-08-20T00:01:36;101149.06;;;22.81;47.05
42647;BME280;31319;53.678;-6.254;2022-08-20T00:04:02;101144.03;;;22.90;46.80
42647;BME280;31319;53.678;-6.254;2022-08-20T00:06:28;101141.63;;;22.92;46.35
42647;BME280;31319;53.678;-6.254;2022-08-20T00:08:53;101140.72;;;22.81;47.13
42647;BME280;31319;53.678;-6.254;2022-08-20T00:11:22;101142.00;;;22.87;47.09
42647;BME280;31319;53.678;-6.254;2022-08-20T00:13:51;101145.03;;;22.75;47.40
42647;BME280;31319;53.678;-6.254;2022-08-20T00:16:20;101143.53;;;22.84;46.89
42647;BME280;31319;53.678;-6.254;2022-08-20T00:18:46;101132.09;;;22.93;47.02
42647;BME280;31319;53.678;-6.254;2022-08-20T00:21:14;101130.00;;;22.83;47.18
42647;BME280;31319;53.678;-6.254;2022-08-20T00:23:42;101135.97;;;22.85;47.26
42647;BME280;31319;53.678;-6.254;2022-08-20T00:26:08;101126.72;;;22.74;47.65
42647;BME280;31319;53.678;-6.254;2022-08-20T00:28:35;101129.63;;;22.84;47.21
42647;BME280;31319;53.678;-6.254;2022-08-20T00:31:03;101121.25;;;22.84;47.49
42647;BME280;31319;53.678;-6.254;2022-08-20T00:33:29;101115.03;;;23.02;46.94
42647;BME280;31319;53.678;-6.254;2022-08-20T00:35:56;101113.03;;;23.02;47.31
42647;BME280;31319;53.678;-6.254;2022-08-20T00:38:24;101106.66;;;23.02;47.36
42647;BME280;31319;53.678;-6.254;2022-08-20T00:40:53;101091.94;;;23.05;47.56
42647;BME280;31319;53.678;-6.254;2022-08-20T00:46:03;101099.19;;;23.13;47.14
42647;BME280;31319;53.678;-6.254;2022-08-20T00:48:32;101097.56;;;23.12;47.31
42647;BME280;31319;53.678;-6.254;2022-08-20T00:51:28;101094.00;;;23.15;47.66
42647;BME280;31319;53.678;-6.254;2022-08-20T00:53:53;101094.81;;;23.15;47.53
42647;BME280;31319;53.678;-6.254;2022-08-20T00:56:19;101100.00;;;23.20;47.48
42647;BME280;31319;53.678;-6.254;2022-08-20T00:58:45;101088.13;;;23.38;46.97
42647;BME280;31319;53.678;-6.254;2022-08-20T01:01:13;101090.94;;;23.38;47.06
42647;BME280;31319;53.678;-6.254;2022-08-20T01:03:40;101084.56;;;23.37;47.25
42647;BME280;31319;53.678;-6.254;2022-08-20T01:06:07;101074.63;;;23.47;46.98
42647;BME280;31319;53.678;-6.254;2022-08-20T01:08:37;101058.63;;;23.33;47.52
42647;BME280;31319;53.678;-6.254;2022-08-20T01:11:03;101046.75;;;23.43;47.20
42647;BME280;31319;53.678;-6.254;2022-08-20T01:13:41;101046.34;;;23.48;46.89
42647;BME280;31319;53.678;-6.254;2022-08-20T01:16:14;101058.31;;;23.52;46.92
42647;BME280;31319;53.678;-6.254;2022-08-20T01:18:43;101059.50;;;23.44;47.24
42647;BME280;31319;53.678;-6.254;2022-08-20T01:21:10;101061.47;;;23.47;47.32
42647;BME280;31319;53.678;-6.254;2022-08-20T01:23:47;101062.28;;;23.48;47.25
42647;BME280;31319;53.678;-6.254;2022-08-20T01:26:24;101055.50;;;23.49;47.23
42647;BME280;31319;53.678;-6.254;2022-08-20T01:28:53;101053.59;;;23.60;47.22
42647;BME280;31319;53.678;-6.254;2022-08-20T01:31:27;101049.53;;;23.43;47.79
42647;BME280;31319;53.678;-6.254;2022-08-20T01:33:55;101044.31;;;23.42;47.70
42647;BME280;31319;53.678;-6.254;2022-08-20T01:36:26;101051.94;;;23.52;47.54
42647;BME280;31319;53.678;-6.254;2022-08-20T01:38:55;101039.59;;;23.57;47.46
42647;BME280;31319;53.678;-6.254;2022-08-20T01:43:49;101029.28;;;23.61;47.51
42647;BME280;31319;53.678;-6.254;2022-08-20T01:46:16;101040.84;;;23.66;47.13
42647;BME280;31319;53.678;-6.254;2022-08-20T01:48:42;101033.63;;;23.58;47.38
42647;BME280;31319;53.678;-6.254;2022-08-20T01:51:21;101038.03;;;23.59;47.88
42647;BME280;31319;53.678;-6.254;2022-08-20T01:53:49;101040.38;;;23.50;47.98
42647;BME280;31319;53.678;-6.254;2022-08-20T01:56:20;101034.81;;;23.57;47.65
42647;BME280;31319;53.678;-6.254;2022-08-20T01:58:49;101030.84;;;23.58;47.51
42647;BME280;31319;53.678;-6.254;2022-08-20T02:01:19;101026.03;;;23.48;47.88
42647;BME280;31319;53.678;-6.254;2022-08-20T02:03:45;101022.91;;;23.64;47.20
42647;BME280;31319;53.678;-6.254;2022-08-20T02:06:11;101023.69;;;23.64;47.32
42647;BME280;31319;53.678;-6.254;2022-08-20T02:08:36;101031.28;;;23.67;47.54
42647;BME280;31319;53.678;-6.254;2022-08-20T02:11:02;101027.72;;;23.74;47.08
42647;BME280;31319;53.678;-6.254;2022-08-20T02:13:28;101029.31;;;23.75;47.28
42647;BME280;31319;53.678;-6.254;2022-08-20T02:15:53;101024.13;;;23.77;47.27
42647;BME280;31319;53.678;-6.254;2022-08-20T02:18:19;101029.22;;;23.50;47.99
42647;BME280;31319;53.678;-6.254;2022-08-20T02:20:45;101022.16;;;23.74;47.40
42647;BME280;31319;53.678;-6.254;2022-08-20T02:23:13;101016.94;;;23.79;47.45
42647;BME280;31319;53.678;-6.254;2022-08-20T02:25:41;101010.19;;;23.80;47.17
42647;BME280;31319;53.678;-6.254;2022-08-20T02:28:10;101015.38;;;23.82;47.57
42647;BME280;31319;53.678;-6.254;2022-08-20T02:30:43;101016.56;;;23.74;48.60
42647;BME280;31319;53.678;-6.254;2022-08-20T02:33:12;101006.19;;;23.78;48.20
42647;BME280;31319;53.678;-6.254;2022-08-20T02:35:40;101012.16;;;23.66;48.65
42647;BME280;31319;53.678;-6.254;2022-08-20T02:38:08;101005.00;;;23.68;48.28
42647;BME280;31319;53.678;-6.254;2022-08-20T02:40:34;101005.41;;;23.74;48.38
42647;BME280;31319;53.678;-6.254;2022-08-20T02:43:01;101006.97;;;23.71;48.53
42647;BME280;31319;53.678;-6.254;2022-08-20T02:45:28;101013.38;;;23.86;47.91
42647;BME280;31319;53.678;-6.254;2022-08-20T02:47:54;101005.78;;;23.76;48.72
42647;BME280;31319;53.678;-6.254;2022-08-20T02:50:22;100999.00;;;23.70;48.96
42647;BME280;31319;53.678;-6.254;2022-08-20T02:52:49;100997.41;;;23.62;49.08
42647;BME280;31319;53.678;-6.254;2022-08-20T02:55:14;101004.59;;;23.66;49.08
42647;BME280;31319;53.678;-6.254;2022-08-20T02:57:41;101004.56;;;23.59;49.41
42647;BME280;31319;53.678;-6.254;2022-08-20T03:00:11;100997.81;;;23.74;49.14
42647;BME280;31319;53.678;-6.254;2022-08-20T03:02:40;100992.63;;;23.62;49.45
42647;BME280;31319;53.678;-6.254;2022-08-20T03:05:06;100989.47;;;23.74;48.86
42647;BME280;31319;53.678;-6.254;2022-08-20T03:07:39;100987.81;;;23.59;49.54
42647;BME280;31319;53.678;-6.254;2022-08-20T03:10:05;100990.66;;;23.80;48.91
42647;BME280;31319;53.678;-6.254;2022-08-20T03:12:31;100973.53;;;23.82;48.76
42647;BME280;31319;53.678;-6.254;2022-08-20T03:14:56;100977.09;;;23.83;48.78
42647;BME280;31319;53.678;-6.254;2022-08-20T03:17:22;100978.28;;;23.67;49.26
42647;BME280;31319;53.678;-6.254;2022-08-20T03:19:47;100973.91;;;23.70;49.05
42647;BME280;31319;53.678;-6.254;2022-08-20T03:22:13;100975.09;;;23.72;48.70
42647;BME280;31319;53.678;-6.254;2022-08-20T03:24:39;100960.34;;;23.86;48.25
42647;BME280;31319;53.678;-6.254;2022-08-20T03:27:04;100956.75;;;23.78;48.58
42647;BME280;31319;53.678;-6.254;2022-08-20T03:29:30;100962.38;;;23.82;48.59
42647;BME280;31319;53.678;-6.254;2022-08-20T03:31:56;100956.38;;;23.94;48.11
42647;BME280;31319;53.678;-6.254;2022-08-20T03:34:22;100963.97;;;23.97;48.15
42647;BME280;31319;53.678;-6.254;2022-08-20T03:36:47;100962.34;;;23.93;47.95
42647;BME280;31319;53.678;-6.254;2022-08-20T03:39:13;100963.56;;;23.92;48.20
42647;BME280;31319;53.678;-6.254;2022-08-20T03:41:39;100964.75;;;23.91;48.21
42647;BME280;31319;53.678;-6.254;2022-08-20T03:44:05;100970.75;;;23.89;48.15
42647;BME280;31319;53.678;-6.254;2022-08-20T03:46:32;100969.53;;;23.87;48.25
42647;BME280;31319;53.678;-6.254;2022-08-20T03:48:57;100959.94;;;23.95;48.19
42647;BME280;31319;53.678;-6.254;2022-08-20T03:51:23;100963.16;;;24.04;47.54
42647;BME280;31319;53.678;-6.254;2022-08-20T03:53:49;100971.13;;;24.02;47.83
42647;BME280;31319;53.678;-6.254;2022-08-20T03:56:14;100972.31;;;24.01;47.59
42647;BME280;31319;53.678;-6.254;2022-08-20T03:58:41;100967.53;;;24.05;47.67
42647;BME280;31319;53.678;-6.254;2022-08-20T04:01:07;100959.94;;;23.88;47.89
42647;BME280;31319;53.678;-6.254;2022-08-20T04:03:33;100944.81;;;23.96;47.56
42647;BME280;31319;53.678;-6.254;2022-08-20T04:05:59;100956.38;;;23.94;47.41
42647;BME280;31319;53.678;-6.254;2022-08-20T04:08:27;100955.97;;;24.03;46.96
42647;BME280;31319;53.678;-6.254;2022-08-20T04:10:55;100954.38;;;23.98;47.15
42647;BME280;31319;53.678;-6.254;2022-08-20T04:13:25;100952.78;;;24.04;47.21
42647;BME280;31319;53.678;-6.254;2022-08-20T04:15:51;100956.38;;;24.05;47.23
42647;BME280;31319;53.678;-6.254;2022-08-20T04:18:21;100949.22;;;23.97;47.19
42647;BME280;31319;53.678;-6.254;2022-08-20T04:20:48;100946.41;;;24.04;47.11
42647;BME280;31319;53.678;-6.254;2022-08-20T04:23:15;100948.00;;;23.98;46.90
42647;BME280;31319;53.678;-6.254;2022-08-20T04:25:42;100942.00;;;24.03;47.10
42647;BME280;31319;53.678;-6.254;2022-08-20T04:28:15;100939.63;;;23.98;47.08
42647;BME280;31319;53.678;-6.254;2022-08-20T04:30:45;100942.84;;;24.03;46.83
42647;BME280;31319;53.678;-6.254;2022-08-20T04:33:11;100942.81;;;23.93;47.07
42647;BME280;31319;53.678;-6.254;2022-08-20T04:35:37;100936.81;;;24.08;46.36
42647;BME280;31319;53.678;-6.254;2022-08-20T04:38:05;100940.41;;;23.95;46.78
42647;BME280;31319;53.678;-6.254;2022-08-20T04:40:32;100937.25;;;23.96;46.95
42647;BME280;31319;53.678;-6.254;2022-08-20T04:43:16;100941.63;;;24.04;46.45
42647;BME280;31319;53.678;-6.254;2022-08-20T04:45:42;100943.22;;;23.98;46.55
42647;BME280;31319;53.678;-6.254;2022-08-20T04:48:09;100944.41;;;23.97;46.58
42647;BME280;31319;53.678;-6.254;2022-08-20T04:50:36;100938.84;;;23.97;46.71
42647;BME280;31319;53.678;-6.254;2022-08-20T04:53:08;100950.00;;;23.83;47.18
42647;BME280;31319;53.678;-6.254;2022-08-20T04:55:35;100946.00;;;23.70;47.18
42647;BME280;31319;53.678;-6.254;2022-08-20T04:58:09;100951.59;;;23.73;47.02
42647;BME280;31319;53.678;-6.254;2022-08-20T05:00:35;100947.19;;;23.79;46.80
42647;BME280;31319;53.678;-6.254;2022-08-20T05:03:01;100945.63;;;23.82;46.74
42647;BME280;31319;53.678;-6.254;2022-08-20T05:05:27;100944.81;;;23.78;46.99
42647;BME280;31319;53.678;-6.254;2022-08-20T05:07:55;100960.34;;;23.86;46.65
42647;BME280;31319;53.678;-6.254;2022-08-20T05:10:22;100959.94;;;23.88;46.45
42647;BME280;31319;53.678;-6.254;2022-08-20T05:12:48;100958.78;;;23.92;46.41
42647;BME280;31319;53.678;-6.254;2022-08-20T05:15:14;100950.41;;;23.85;46.35
42647;BME280;31319;53.678;-6.254;2022-08-20T05:17:40;100963.94;;;23.76;46.46
42647;BME280;31319;53.678;-6.254;2022-08-20T05:20:09;100969.53;;;23.76;46.59
42647;BME280;31319;53.678;-6.254;2022-08-20T05:22:36;100965.94;;;23.79;46.69
42647;BME280;31319;53.678;-6.254;2022-08-20T05:25:02;100967.16;;;23.82;46.53
42647;BME280;31319;53.678;-6.254;2022-08-20T05:27:28;100965.56;;;23.73;46.69
42647;BME280;31319;53.678;-6.254;2022-08-20T05:30:06;100973.94;;;23.80;46.59
42647;BME280;31319;53.678;-6.254;2022-08-20T05:32:33;100970.31;;;23.76;46.61
42647;BME280;31319;53.678;-6.254;2022-08-20T05:35:03;100979.09;;;23.86;46.32
42647;BME280;31319;53.678;-6.254;2022-08-20T05:37:29;100972.75;;;23.96;46.10
42647;BME280;31319;53.678;-6.254;2022-08-20T05:39:56;100975.91;;;23.98;45.96
42647;BME280;31319;53.678;-6.254;2022-08-20T05:42:21;100970.31;;;23.80;46.46
42647;BME280;31319;53.678;-6.254;2022-08-20T05:44:48;100981.47;;;23.76;46.57
42647;BME280;31319;53.678;-6.254;2022-08-20T05:47:14;100975.09;;;23.87;46.44
42647;BME280;31319;53.678;-6.254;2022-08-20T05:49:39;100974.31;;;24.11;45.61
42647;BME280;31319;53.678;-6.254;2022-08-20T05:52:05;100977.09;;;24.15;45.28
42647;BME280;31319;53.678;-6.254;2022-08-20T05:54:32;100964.34;;;23.92;46.17
42647;BME280;31319;53.678;-6.254;2022-08-20T05:56:57;100979.09;;;23.89;46.21
42647;BME280;31319;53.678;-6.254;2022-08-20T05:59:23;100979.09;;;23.86;45.98
42647;BME280;31319;53.678;-6.254;2022-08-20T06:01:50;100965.13;;;23.64;46.94
42647;BME280;31319;53.678;-6.254;2022-08-20T06:04:16;100966.34;;;23.74;46.21
42647;BME280;31319;53.678;-6.254;2022-08-20T06:07:00;100972.31;;;23.76;46.17
42647;BME280;31319;53.678;-6.254;2022-08-20T06:09:27;100967.13;;;23.78;46.07
42647;BME280;31319;53.678;-6.254;2022-08-20T06:11:53;100971.94;;;23.81;46.48
42647;BME280;31319;53.678;-6.254;2022-08-20T06:14:19;100967.16;;;23.82;46.28
42647;BME280;31319;53.678;-6.254;2022-08-20T06:16:45;100970.72;;;23.86;46.06
42647;BME280;31319;53.678;-6.254;2022-08-20T06:19:11;100963.53;;;23.70;46.60
42647;BME280;31319;53.678;-6.254;2022-08-20T06:21:38;100969.50;;;23.58;46.98
42647;BME280;31319;53.678;-6.254;2022-08-20T06:24:05;100969.50;;;23.62;47.03
42647;BME280;31319;53.678;-6.254;2022-08-20T06:26:31;100964.75;;;23.69;46.90
42647;BME280;31319;53.678;-6.254;2022-08-20T06:29:02;100967.53;;;23.84;46.21
42647;BME280;31319;53.678;-6.254;2022-08-20T06:31:28;100971.91;;;23.70;46.71
42647;BME280;31319;53.678;-6.254;2022-08-20T06:33:54;100971.91;;;23.92;45.80
42647;BME280;31319;53.678;-6.254;2022-08-20T06:36:20;100971.13;;;23.91;46.25
42647;BME280;31319;53.678;-6.254;2022-08-20T06:38:45;100973.50;;;23.78;46.22
42647;BME280;31319;53.678;-6.254;2022-08-20T06:41:11;100975.91;;;23.76;46.56
42647;BME280;31319;53.678;-6.254;2022-08-20T06:43:37;100964.34;;;23.85;46.24
42647;BME280;31319;53.678;-6.254;2022-08-20T06:46:02;100965.94;;;23.86;46.63
42647;BME280;31319;53.678;-6.254;2022-08-20T06:48:28;100963.94;;;23.94;46.16
42647;BME280;31319;53.678;-6.254;2022-08-20T06:50:54;100966.34;;;23.88;46.46
42647;BME280;31319;53.678;-6.254;2022-08-20T06:53:20;100957.97;;;23.99;46.33
42647;BME280;31319;53.678;-6.254;2022-08-20T06:55:53;100967.13;;;23.85;46.77
42647;BME280;31319;53.678;-6.254;2022-08-20T06:58:19;100961.56;;;23.92;46.33
42647;BME280;31319;53.678;-6.254;2022-08-20T07:00:45;100960.75;;;23.92;46.45
42647;BME280;31319;53.678;-6.254;2022-08-20T07:03:12;100968.31;;;23.95;46.29
42647;BME280;31319;53.678;-6.254;2022-08-20T07:05:40;100966.34;;;23.99;46.16
42647;BME280;31319;53.678;-6.254;2022-08-20T07:08:14;100968.31;;;23.88;46.18
42647;BME280;31319;53.678;-6.254;2022-08-20T07:10:41;100975.13;;;24.04;45.98
42647;BME280;31319;53.678;-6.254;2022-08-20T07:13:12;100964.75;;;24.01;45.87
42647;BME280;31319;53.678;-6.254;2022-08-20T07:15:40;100964.75;;;24.05;46.00
42647;BME280;31319;53.678;-6.254;2022-08-20T07:18:06;100957.59;;;24.04;45.88
42647;BME280;31319;53.678;-6.254;2022-08-20T07:20:33;100965.13;;;24.18;45.44
42647;BME280;31319;53.678;-6.254;2022-08-20T07:23:00;100958.38;;;24.04;45.85
42647;BME280;31319;53.678;-6.254;2022-08-20T07:25:26;100957.59;;;24.04;46.01
42647;BME280;31319;53.678;-6.254;2022-08-20T07:27:52;100961.53;;;24.17;45.83
42647;BME280;31319;53.678;-6.254;2022-08-20T07:30:21;100958.72;;;24.24;45.48
42647;BME280;31319;53.678;-6.254;2022-08-20T07:33:05;100973.06;;;24.58;44.91
42647;BME280;31319;53.678;-6.254;2022-08-20T07:35:31;100965.44;;;24.70;45.23
42647;BME280;31319;53.678;-6.254;2022-08-20T07:37:56;100959.84;;;24.77;44.95
42647;BME280;31319;53.678;-6.254;2022-08-20T07:40:33;100959.44;;;24.82;44.89
42647;BME280;31319;53.678;-6.254;2022-08-20T07:42:59;100966.16;;;24.91;44.86
42647;BME280;31319;53.678;-6.254;2022-08-20T07:45:28;100964.56;;;24.90;44.76
42647;BME280;31319;53.678;-6.254;2022-08-20T07:47:54;100975.81;;;24.80;44.87
42647;BME280;31319;53.678;-6.254;2022-08-20T07:50:24;100960.97;;;25.04;44.15
42647;BME280;31319;53.678;-6.254;2022-08-20T07:52:50;100953.28;;;25.15;43.90
42647;BME280;31319;53.678;-6.254;2022-08-20T07:55:18;100966.44;;;25.22;44.00
42647;BME280;31319;53.678;-6.254;2022-08-20T07:57:47;100958.50;;;25.17;44.02
42647;BME280;31319;53.678;-6.254;2022-08-20T08:00:16;100953.25;;;25.23;43.34
42647;BME280;31319;53.678;-6.254;2022-08-20T08:02:42;100955.75;;;25.06;43.80
42647;BME280;31319;53.678;-6.254;2022-08-20T08:05:08;100950.88;;;25.25;43.38
42647;BME280;31319;53.678;-6.254;2022-08-20T08:07:34;100958.06;;;25.22;43.40
42647;BME280;31319;53.678;-6.254;2022-08-20T08:10:02;100954.84;;;25.24;43.19
42647;BME280;31319;53.678;-6.254;2022-08-20T08:12:35;100960.09;;;25.14;43.31
42647;BME280;31319;53.678;-6.254;2022-08-20T08:15:04;100962.06;;;25.21;43.37
42647;BME280;31319;53.678;-6.254;2022-08-20T08:17:31;100960.84;;;25.26;42.99
42647;BME280;31319;53.678;-6.254;2022-08-20T08:19:58;100961.19;;;25.31;42.98
42647;BME280;31319;53.678;-6.254;2022-08-20T08:22:24;100958.78;;;25.37;43.19
42647;BME280;31319;53.678;-6.254;2022-08-20T08:24:50;100965.13;;;25.44;42.89
42647;BME280;31319;53.678;-6.254;2022-08-20T08:27:15;100964.59;;;25.64;42.31
42647;BME280;31319;53.678;-6.254;2022-08-20T08:29:43;100964.16;;;25.69;42.63
42647;BME280;31319;53.678;-6.254;2022-08-20T08:32:11;100961.84;;;25.53;42.36
42647;BME280;31319;53.678;-6.254;2022-08-20T08:34:37;100956.94;;;25.75;42.02
42647;BME280;31319;53.678;-6.254;2022-08-20T08:37:04;100967.97;;;25.96;41.82
42647;BME280;31319;53.678;-6.254;2022-08-20T08:39:31;100949.66;;;25.88;42.12
42647;BME280;31319;53.678;-6.254;2022-08-20T08:41:58;100953.19;;;25.96;41.83
42647;BME280;31319;53.678;-6.254;2022-08-20T08:44:27;100973.50;;;26.04;41.60
42647;BME280;31319;53.678;-6.254;2022-08-20T08:46:57;100961.81;;;25.60;42.15
42647;BME280;31319;53.678;-6.254;2022-08-20T08:49:28;100954.91;;;25.79;41.73
42647;BME280;31319;53.678;-6.254;2022-08-20T08:52:00;100956.94;;;26.23;41.26
42647;BME280;31319;53.678;-6.254;2022-08-20T08:54:29;100964.63;;;26.12;41.25
42647;BME280;31319;53.678;-6.254;2022-08-20T08:56:57;100963.94;;;26.46;40.54
42647;BME280;31319;53.678;-6.254;2022-08-20T08:59:28;100963.47;;;26.51;40.59
42647;BME280;31319;53.678;-6.254;2022-08-20T09:01:57;100962.25;;;26.52;40.78
42647;BME280;31319;53.678;-6.254;2022-08-20T09:04:32;100964.16;;;26.62;40.04
42647;BME280;31319;53.678;-6.254;2022-08-20T09:07:00;100968.19;;;26.58;40.19
42647;BME280;31319;53.678;-6.254;2022-08-20T09:09:33;100965.41;;;26.16;40.25
42647;BME280;31319;53.678;-6.254;2022-08-20T09:12:06;100955.56;;;26.42;39.65
42647;BME280;31319;53.678;-6.254;2022-08-20T09:14:32;100973.94;;;26.47;39.86
42647;BME280;31319;53.678;-6.254;2022-08-20T09:16:57;100974.44;;;26.72;39.39
42647;BME280;31319;53.678;-6.254;2022-08-20T09:19:23;100957.84;;;26.51;39.82
42647;BME280;31319;53.678;-6.254;2022-08-20T09:21:49;100950.38;;;26.37;39.62
42647;BME280;31319;53.678;-6.254;2022-08-20T09:24:14;100961.31;;;26.66;39.04
42647;BME280;31319;53.678;-6.254;2022-08-20T09:26:40;100953.34;;;26.95;38.40
42647;BME280;31319;53.678;-6.254;2022-08-20T09:29:05;100970.81;;;26.75;39.03
42647;BME280;31319;53.678;-6.254;2022-08-20T09:31:31;100971.38;;;26.94;38.71
42647;BME280;31319;53.678;-6.254;2022-08-20T09:33:57;100962.91;;;26.97;38.74
42647;BME280;31319;53.678;-6.254;2022-08-20T09:36:22;100963.00;;;26.90;38.82
42647;BME280;31319;53.678;-6.254;2022-08-20T09:38:48;100954.44;;;26.70;39.15
42647;BME280;31319;53.678;-6.254;2022-08-20T09:41:13;100961.09;;;26.83;38.49
42647;BME280;31319;53.678;-6.254;2022-08-20T09:43:39;100949.19;;;26.76;38.78
42647;BME280;31319;53.678;-6.254;2022-08-20T09:46:05;100941.25;;;27.01;38.42
42647;BME280;31319;53.678;-6.254;2022-08-20T09:48:31;100941.97;;;27.09;38.46
42647;BME280;31319;53.678;-6.254;2022-08-20T09:50:56;100946.41;;;27.06;38.37
42647;BME280;31319;53.678;-6.254;2022-08-20T09:53:22;100944.31;;;27.14;37.94
42647;BME280;31319;53.678;-6.254;2022-08-20T09:55:53;100941.41;;;27.21;37.71
42647;BME280;31319;53.678;-6.254;2022-08-20T09:58:23;100934.47;;;27.29;36.77
42647;BME280;31319;53.678;-6.254;2022-08-20T10:00:51;100940.88;;;27.30;36.58
42647;BME280;31319;53.678;-6.254;2022-08-20T10:03:17;100944.28;;;27.45;36.60
42647;BME280;31319;53.678;-6.254;2022-08-20T10:05:43;100929.06;;;27.42;36.31
42647;BME280;31319;53.678;-6.254;2022-08-20T10:08:10;100928.19;;;27.22;36.32
42647;BME280;31319;53.678;-6.254;2022-08-20T10:10:36;100934.72;;;27.12;36.63
42647;BME280;31319;53.678;-6.254;2022-08-20T10:13:02;100934.69;;;27.15;36.43
42647;BME280;31319;53.678;-6.254;2022-08-20T10:15:28;100925.66;;;27.27;36.20
42647;BME280;31319;53.678;-6.254;2022-08-20T10:17:54;100923.19;;;27.06;36.50
42647;BME280;31319;53.678;-6.254;2022-08-20T10:20:22;100933.09;;;27.41;36.17
42647;BME280;31319;53.678;-6.254;2022-08-20T10:22:49;100922.44;;;27.56;36.49
42647;BME280;31319;53.678;-6.254;2022-08-20T10:25:15;100922.88;;;27.54;36.44
42647;BME280;31319;53.678;-6.254;2022-08-20T10:27:42;100918.22;;;27.44;36.29
42647;BME280;31319;53.678;-6.254;2022-08-20T10:30:09;100918.06;;;27.55;35.80
42647;BME280;31319;53.678;-6.254;2022-08-20T10:32:34;100929.28;;;27.55;35.77
42647;BME280;31319;53.678;-6.254;2022-08-20T10:35:00;100918.00;;;27.58;35.95
42647;BME280;31319;53.678;-6.254;2022-08-20T10:37:26;100916.88;;;27.79;35.34
42647;BME280;31319;53.678;-6.254;2022-08-20T10:39:52;100910.28;;;28.13;34.93
42647;BME280;31319;53.678;-6.254;2022-08-20T10:42:18;100894.91;;;27.98;35.24
42647;BME280;31319;53.678;-6.254;2022-08-20T10:44:44;100907.94;;;28.31;34.72
42647;BME280;31319;53.678;-6.254;2022-08-20T10:49:50;100891.44;;;28.53;33.92
42647;BME280;31319;53.678;-6.254;2022-08-20T10:52:16;100896.69;;;28.31;33.45
42647;BME280;31319;53.678;-6.254;2022-08-20T10:54:42;100893.91;;;28.51;33.51
42647;BME280;31319;53.678;-6.254;2022-08-20T10:57:13;100887.19;;;28.45;33.08
42647;BME280;31319;53.678;-6.254;2022-08-20T10:59:41;100888.47;;;28.40;33.54
42647;BME280;31319;53.678;-6.254;2022-08-20T11:02:07;100878.56;;;28.36;33.22
42647;BME280;31319;53.678;-6.254;2022-08-20T11:04:34;100904.34;;;28.51;32.73
42647;BME280;31319;53.678;-6.254;2022-08-20T11:09:38;100895.03;;;28.93;32.11
42647;BME280;31319;53.678;-6.254;2022-08-20T11:12:03;100890.19;;;28.94;32.28
42647;BME280;31319;53.678;-6.254;2022-08-20T11:14:29;100904.25;;;28.94;32.03
42647;BME280;31319;53.678;-6.254;2022-08-20T11:16:55;100894.53;;;28.98;32.03
42647;BME280;31319;53.678;-6.254;2022-08-20T11:19:21;100897.22;;;28.46;32.82
42647;BME280;31319;53.678;-6.254;2022-08-20T11:21:47;100899.66;;;28.44;32.52
42647;BME280;31319;53.678;-6.254;2022-08-20T11:24:12;100894.41;;;28.46;32.55
42647;BME280;31319;53.678;-6.254;2022-08-20T11:26:38;100905.06;;;28.55;32.07
42647;BME280;31319;53.678;-6.254;2022-08-20T11:29:04;100896.03;;;28.63;31.88
42647;BME280;31319;53.678;-6.254;2022-08-20T11:31:30;100889.28;;;28.81;31.58
42647;BME280;31319;53.678;-6.254;2022-08-20T11:33:55;100899.25;;;28.65;31.66
42647;BME280;31319;53.678;-6.254;2022-08-20T11:36:21;100893.16;;;28.47;31.96
42647;BME280;31319;53.678;-6.254;2022-08-20T11:38:51;100891.69;;;28.79;31.78
42647;BME280;31319;53.678;-6.254;2022-08-20T11:41:16;100887.94;;;28.06;32.67
42647;BME280;31319;53.678;-6.254;2022-08-20T11:43:42;100875.28;;;28.77;31.57
42647;BME280;31319;53.678;-6.254;2022-08-20T11:46:08;100893.47;;;28.72;31.51
42647;BME280;31319;53.678;-6.254;2022-08-20T11:48:34;100890.91;;;28.98;30.93
42647;BME280;31319;53.678;-6.254;2022-08-20T11:50:59;100901.97;;;28.49;31.95
42647;BME280;31319;53.678;-6.254;2022-08-20T11:53:25;100893.63;;;28.65;31.25
42647;BME280;31319;53.678;-6.254;2022-08-20T11:55:51;100886.84;;;29.19;30.72
42647;BME280;31319;53.678;-6.254;2022-08-20T11:58:16;100873.38;;;29.43;30.81
42647;BME280;31319;53.678;-6.254;2022-08-20T12:00:42;100862.66;;;29.21;30.91
42647;BME280;31319;53.678;-6.254;2022-08-20T12:03:08;100869.31;;;28.95;31.23
42647;BME280;31319;53.678;-6.254;2022-08-20T12:05:34;100874.31;;;28.84;31.19
42647;BME280;31319;53.678;-6.254;2022-08-20T12:08:00;100891.09;;;29.07;30.96
42647;BME280;31319;53.678;-6.254;2022-08-20T12:10:26;100888.31;;;29.23;31.00
42647;BME280;31319;53.678;-6.254;2022-08-20T12:12:53;100889.03;;;29.27;30.76
42647;BME280;31319;53.678;-6.254;2022-08-20T12:15:19;100889.53;;;29.06;30.81
42647;BME280;31319;53.678;-6.254;2022-08-20T12:17:45;100884.81;;;29.36;30.03
42647;BME280;31319;53.678;-6.254;2022-08-20T12:20:12;100888.31;;;29.23;30.55
42647;BME280;31319;53.678;-6.254;2022-08-20T12:22:38;100893.13;;;29.07;30.49
42647;BME280;31319;53.678;-6.254;2022-08-20T12:25:05;100892.03;;;29.20;30.59
42647;BME280;31319;53.678;-6.254;2022-08-20T12:27:33;100891.63;;;29.54;30.10
42647;BME280;31319;53.678;-6.254;2022-08-20T12:30:03;100891.88;;;29.76;29.89
42647;BME280;31319;53.678;-6.254;2022-08-20T12:32:30;100895.66;;;29.53;30.37
42647;BME280;31319;53.678;-6.254;2022-08-20T12:34:57;100887.97;;;29.38;30.15
42647;BME280;31319;53.678;-6.254;2022-08-20T12:37:25;100900.13;;;29.18;29.92
42647;BME280;31319;53.678;-6.254;2022-08-20T12:39:53;100894.63;;;28.95;30.17
42647;BME280;31319;53.678;-6.254;2022-08-20T12:42:19;100895.94;;;28.87;30.38
42647;BME280;31319;53.678;-6.254;2022-08-20T12:44:45;100890.69;;;28.89;30.30
42647;BME280;31319;53.678;-6.254;2022-08-20T12:47:12;100906.72;;;28.72;30.82
42647;BME280;31319;53.678;-6.254;2022-08-20T12:49:40;100907.88;;;28.35;31.42
42647;BME280;31319;53.678;-6.254;2022-08-20T12:52:08;100911.69;;;27.78;31.86